createdAt,value
2023-05-09T00:02:14.051Z,101911.75
2023-05-09T00:04:40.972Z,101903.56
2023-05-09T00:07:07.645Z,101903.94
2023-05-09T00:09:38.629Z,101906.84
2023-05-09T00:12:07.996Z,101892.97
2023-05-09T00:14:37.062Z,101887.59
2023-05-09T00:17:06.037Z,101894.56
2023-05-09T00:19:33.298Z,101897.31
2023-05-09T00:22:02.552Z,101896.25
2023-05-09T00:24:29.183Z,101887.63
2023-05-09T00:26:55.870Z,101887.63
2023-05-09T00:29:24.481Z,101879.88
2023-05-09T00:31:51.042Z,101878.88
2023-05-09T00:34:18.029Z,101883.06
2023-05-09T00:36:44.611Z,101886.28
2023-05-09T00:39:11.101Z,101880.13
2023-05-09T00:41:37.630Z,101875.94
2023-05-09T00:44:06.936Z,101880.31
2023-05-09T00:46:36.024Z,101875.50
2023-05-09T00:49:02.579Z,101870.13
2023-05-09T00:51:29.355Z,101869.97
2023-05-09T00:53:58.240Z,101866.13
2023-05-09T00:56:31.580Z,101864.88
2023-05-09T00:58:58.582Z,101874.44
2023-05-09T01:01:27.894Z,101866.47
2023-05-09T01:03:57.934Z,101862.94
2023-05-09T01:06:39.734Z,101864.88
2023-05-09T01:09:24.398Z,101859.09
2023-05-09T01:12:20.042Z,101855.34
2023-05-09T01:14:55.529Z,101843.06
2023-05-09T01:17:33.892Z,101839.84
2023-05-09T01:20:11.092Z,101848.75
2023-05-09T01:22:46.139Z,101840.22
2023-05-09T01:25:15.923Z,101839.22
2023-05-09T01:27:54.736Z,101832.47
2023-05-09T01:30:21.757Z,101826.84
2023-05-09T01:32:54.226Z,101827.03
2023-05-09T01:35:26.365Z,101820.88
2023-05-09T01:37:54.792Z,101819.06
2023-05-09T01:40:26.120Z,101812.31
2023-05-09T01:42:59.358Z,101816.88
2023-05-09T01:45:32.747Z,101820.97
2023-05-09T01:48:02.597Z,101818.75
2023-05-09T01:50:33.974Z,101815.72
2023-05-09T01:53:06.506Z,101809.94
2023-05-09T01:55:35.973Z,101804.94
2023-05-09T01:58:05.906Z,101804.94
2023-05-09T02:00:35.227Z,101798.97
2023-05-09T02:03:03.827Z,101796.41
2023-05-09T02:05:32.100Z,101802.72
2023-05-09T02:08:01.656Z,101797.91
2023-05-09T02:10:28.853Z,101798.25
2023-05-09T02:12:57.915Z,101798.88
2023-05-09T02:15:24.771Z,101796.28
2023-05-09T02:17:51.440Z,101782.56
2023-05-09T02:20:20.505Z,101792.91
2023-05-09T02:22:47.788Z,101783.75
2023-05-09T02:25:19.629Z,101782.94
2023-05-09T02:27:46.854Z,101783.09
2023-05-09T02:30:23.295Z,101780.09
2023-05-09T02:32:52.164Z,101770.91
2023-05-09T02:35:19.546Z,101769.31
2023-05-09T02:37:47.321Z,101771.28
2023-05-09T02:40:14.477Z,101758.91
2023-05-09T02:42:43.518Z,101772.00
2023-05-09T02:45:12.953Z,101770.56
2023-05-09T02:47:39.895Z,101779.31
2023-05-09T02:50:06.876Z,101765.59
2023-05-09T02:52:35.954Z,101771.56
2023-05-09T02:55:03.704Z,101769.16
2023-05-09T02:57:32.526Z,101768.34
2023-05-09T03:00:01.270Z,101764.00
2023-05-09T03:02:27.907Z,101760.94
2023-05-09T03:04:56.761Z,101759.53
2023-05-09T03:07:23.277Z,101760.88
2023-05-09T03:09:51.856Z,101760.78
2023-05-09T03:12:18.307Z,101751.41
2023-05-09T03:14:47.329Z,101752.06
2023-05-09T03:17:17.324Z,101744.47
2023-05-09T03:19:43.777Z,101742.72
2023-05-09T03:22:15.077Z,101742.53
2023-05-09T03:24:43.892Z,101739.56
2023-05-09T03:27:10.535Z,101741.81
2023-05-09T03:29:39.012Z,101739.22
2023-05-09T03:32:08.024Z,101729.69
2023-05-09T03:34:34.531Z,101725.31
2023-05-09T03:37:00.947Z,101719.03
2023-05-09T03:39:27.419Z,101719.63
2023-05-09T03:41:56.220Z,101709.28
2023-05-09T03:44:27.532Z,101703.94
2023-05-09T03:46:54.026Z,101700.75
2023-05-09T03:49:23.523Z,101687.84
2023-05-09T03:51:52.062Z,101698.78
2023-05-09T03:54:20.928Z,101685.88
2023-05-09T03:56:49.718Z,101684.72
2023-05-09T03:59:16.276Z,101677.78
2023-05-09T04:01:42.907Z,101681.94
2023-05-09T04:04:09.520Z,101680.34
2023-05-09T04:06:40.650Z,101683.28
2023-05-09T04:09:09.808Z,101686.66
2023-05-09T04:11:38.808Z,101676.72
2023-05-09T04:14:07.104Z,101680.63
2023-05-09T04:16:36.079Z,101676.63
2023-05-09T04:19:04.890Z,101677.25
2023-05-09T04:21:31.854Z,101671.75
2023-05-09T04:24:00.707Z,101668.97
2023-05-09T04:26:27.307Z,101673.94
2023-05-09T04:28:53.793Z,101674.94
2023-05-09T04:31:20.463Z,101672.34
2023-05-09T04:33:49.488Z,101676.72
2023-05-09T04:36:16.152Z,101679.09
2023-05-09T04:38:42.671Z,101679.28
2023-05-09T04:41:09.169Z,101671.75
2023-05-09T04:43:37.968Z,101669.75
2023-05-09T04:46:04.452Z,101674.72
2023-05-09T04:48:33.064Z,101665.84
2023-05-09T04:50:59.559Z,101661.63
2023-05-09T04:53:26.784Z,101655.50
2023-05-09T04:55:53.337Z,101664.66
2023-05-09T04:58:20.301Z,101657.72
2023-05-09T05:00:46.824Z,101651.22
2023-05-09T05:03:15.562Z,101643.91
2023-05-09T05:05:44.679Z,101637.75
2023-05-09T05:08:11.262Z,101649.50
2023-05-09T05:10:42.563Z,101644.78
2023-05-09T05:13:11.398Z,101643.59
2023-05-09T05:15:40.007Z,101644.63
2023-05-09T05:18:06.548Z,101632.16
2023-05-09T05:20:33.570Z,101631.63
2023-05-09T05:23:02.522Z,101630.69
2023-05-09T05:25:29.029Z,101625.75
2023-05-09T05:27:58.013Z,101621.63
2023-05-09T05:30:27.060Z,101614.31
2023-05-09T05:32:56.103Z,101614.91
2023-05-09T05:35:23.416Z,101608.59
2023-05-09T05:37:50.009Z,101605.63
2023-05-09T05:40:18.876Z,101607.66
2023-05-09T05:42:47.826Z,101604.88
2023-05-09T05:45:14.698Z,101598.53
2023-05-09T05:47:43.868Z,101596.19
2023-05-09T05:50:13.316Z,101592.84
2023-05-09T05:52:42.269Z,101593.72
2023-05-09T05:55:13.873Z,101588.59
2023-05-09T05:57:42.940Z,101581.66
2023-05-09T06:00:11.384Z,101581.50
2023-05-09T06:02:43.547Z,101572.97
2023-05-09T06:05:11.206Z,101569.03
2023-05-09T06:07:37.895Z,101570.47
2023-05-09T06:10:04.736Z,101577.66
2023-05-09T06:12:31.440Z,101573.28
2023-05-09T06:15:00.618Z,101571.28
2023-05-09T06:17:27.198Z,101573.88
2023-05-09T06:19:56.051Z,101569.09
2023-05-09T06:22:22.703Z,101563.91
2023-05-09T06:24:51.456Z,101566.69
2023-05-09T06:27:17.983Z,101561.34
2023-05-09T06:29:47.032Z,101555.16
2023-05-09T06:32:18.676Z,101555.94
2023-05-09T06:34:48.144Z,101559.34
2023-05-09T06:37:16.944Z,101553.38
2023-05-09T06:39:43.466Z,101543.22
2023-05-09T06:42:10.043Z,101535.03
2023-05-09T06:44:39.048Z,101539.78
2023-05-09T06:47:05.599Z,101532.00
2023-05-09T06:49:32.156Z,101528.97
2023-05-09T06:51:58.654Z,101524.63
2023-05-09T06:54:29.750Z,101522.63
2023-05-09T06:56:58.516Z,101517.69
2023-05-09T06:59:25.160Z,101513.91
2023-05-09T07:01:54.177Z,101522.09
2023-05-09T07:04:20.779Z,101511.94
2023-05-09T07:06:49.801Z,101517.13
2023-05-09T07:09:20.564Z,101511.56
2023-05-09T07:11:47.361Z,101511.56
2023-05-09T07:14:13.915Z,101510.94
2023-05-09T07:16:40.494Z,101507.78
2023-05-09T07:19:07.010Z,101504.19
2023-05-09T07:21:35.923Z,101495.41
2023-05-09T07:24:04.731Z,101501.81
2023-05-09T07:26:35.674Z,101500.59
2023-05-09T07:29:02.314Z,101499.44
2023-05-09T07:31:29.408Z,101499.81
2023-05-09T07:34:02.971Z,101502.03
2023-05-09T07:36:29.452Z,101498.66
2023-05-09T07:39:00.431Z,101505.41
2023-05-09T07:41:26.907Z,101491.88
2023-05-09T07:43:55.543Z,101493.84
2023-05-09T07:46:24.406Z,101493.25
2023-05-09T07:48:51.085Z,101489.06
2023-05-09T07:51:17.733Z,101493.63
2023-05-09T07:53:46.812Z,101483.69
2023-05-09T07:56:17.826Z,101481.25
2023-05-09T07:58:44.282Z,101478.69
2023-05-09T08:01:13.327Z,101472.53
2023-05-09T08:03:42.186Z,101473.13
2023-05-09T08:06:11.133Z,101471.91
2023-05-09T08:08:38.976Z,101465.56
2023-05-09T08:11:10.206Z,101463.94
2023-05-09T08:13:38.961Z,101458.19
2023-05-09T08:16:05.839Z,101462.34
2023-05-09T08:18:32.413Z,101454.41
2023-05-09T08:20:59.754Z,101449.41
2023-05-09T08:23:30.328Z,101448.63
2023-05-09T08:25:59.457Z,101436.69
2023-05-09T08:28:28.840Z,101441.28
2023-05-09T08:30:58.198Z,101437.50
2023-05-09T08:33:24.981Z,101429.75
2023-05-09T08:35:56.953Z,101436.91
2023-05-09T08:38:24.375Z,101441.06
2023-05-09T08:40:50.927Z,101431.72
2023-05-09T08:43:20.571Z,101435.09
2023-05-09T08:45:51.633Z,101430.50
2023-05-09T08:48:19.182Z,101427.09
2023-05-09T08:50:48.197Z,101423.94
2023-05-09T08:53:15.169Z,101424.72
2023-05-09T08:55:41.788Z,101423.31
2023-05-09T08:58:16.699Z,101420.94
2023-05-09T09:00:48.825Z,101417.34
2023-05-09T09:03:15.609Z,101417.72
2023-05-09T09:05:47.411Z,101422.50
2023-05-09T09:08:17.625Z,101415.75
2023-05-09T09:10:47.566Z,101409.38
2023-05-09T09:13:16.760Z,101406.41
2023-05-09T09:15:47.111Z,101407.63
2023-05-09T09:18:20.969Z,101398.28
2023-05-09T09:21:04.956Z,101399.28
2023-05-09T09:23:33.286Z,101401.47
2023-05-09T09:26:04.812Z,101398.69
2023-05-09T09:28:31.538Z,101394.28
2023-05-09T09:31:00.486Z,101391.91
2023-05-09T09:33:28.728Z,101389.13
2023-05-09T09:36:00.637Z,101390.31
2023-05-09T09:38:31.137Z,101387.94
2023-05-09T09:41:00.761Z,101389.91
2023-05-09T09:43:31.765Z,101386.94
2023-05-09T09:46:04.892Z,101387.72
2023-05-09T09:48:33.990Z,101385.53
2023-05-09T09:51:18.317Z,101384.75
2023-05-09T09:53:47.371Z,101375.38
2023-05-09T09:56:16.431Z,101377.97
2023-05-09T09:58:45.216Z,101381.75
2023-05-09T10:01:20.789Z,101377.97
2023-05-09T10:03:49.630Z,101378.19
2023-05-09T10:06:18.600Z,101371.19
2023-05-09T10:08:49.171Z,101369.41
2023-05-09T10:11:16.384Z,101370.59
2023-05-09T10:13:43.743Z,101372.19
2023-05-09T10:16:11.554Z,101369.19
2023-05-09T10:18:42.066Z,101367.97
2023-05-09T10:21:12.065Z,101375.13
2023-05-09T10:23:45.378Z,101363.19
2023-05-09T10:26:28.711Z,101366.75
2023-05-09T10:28:57.112Z,101365.75
2023-05-09T10:31:28.856Z,101358.41
2023-05-09T10:34:01.722Z,101359.00
2023-05-09T10:36:31.149Z,101349.44
2023-05-09T10:38:57.796Z,101351.22
2023-05-09T10:41:29.511Z,101354.22
2023-05-09T10:43:59.163Z,101351.41
2023-05-09T10:46:27.532Z,101337.69
2023-05-09T10:48:57.259Z,101332.31
2023-05-09T10:51:27.725Z,101335.47
2023-05-09T10:53:55.947Z,101334.69
2023-05-09T10:56:33.406Z,101330.09
2023-05-09T10:59:00.581Z,101324.75
2023-05-09T11:01:42.520Z,101321.38
2023-05-09T11:04:17.030Z,101325.13
2023-05-09T11:06:57.693Z,101319.97
2023-05-09T11:09:32.691Z,101316.59
2023-05-09T11:12:08.062Z,101315.59
2023-05-09T11:14:45.682Z,101311.63
2023-05-09T11:17:28.531Z,101311.78
2023-05-09T11:20:00.758Z,101307.03
2023-05-09T11:22:33.899Z,101302.78
2023-05-09T11:25:07.359Z,101302.97
2023-05-09T11:27:42.759Z,101290.84
2023-05-09T11:30:14.809Z,101287.06
2023-05-09T11:32:43.175Z,101281.88
2023-05-09T11:35:15.305Z,101282.09
2023-05-09T11:38:01.582Z,101280.91
2023-05-09T11:40:31.400Z,101276.00
2023-05-09T11:42:59.324Z,101270.03
2023-05-09T11:45:27.650Z,101272.75
2023-05-09T11:48:00.539Z,101263.19
2023-05-09T11:50:27.298Z,101260.81
2023-05-09T11:52:54.306Z,101266.78
2023-05-09T11:55:22.791Z,101258.03
2023-05-09T11:57:54.338Z,101261.63
2023-05-09T12:00:22.966Z,101265.59
2023-05-09T12:02:52.224Z,101253.06
2023-05-09T12:05:20.773Z,101254.84
2023-05-09T12:07:50.216Z,101251.72
2023-05-09T12:10:20.074Z,101243.94
2023-05-09T12:12:50.835Z,101244.94
2023-05-09T12:15:21.530Z,101242.94
2023-05-09T12:18:04.483Z,101251.50
2023-05-09T12:20:46.110Z,101239.00
2023-05-09T12:23:15.636Z,101242.16
2023-05-09T12:25:56.236Z,101241.78
2023-05-09T12:28:28.974Z,101240.78
2023-05-09T12:31:01.318Z,101233.81
2023-05-09T12:33:28.328Z,101229.22
2023-05-09T12:36:11.033Z,101232.03
2023-05-09T12:38:38.050Z,101223.47
2023-05-09T12:41:22.335Z,101227.84
2023-05-09T12:43:59.062Z,101222.50
2023-05-09T12:46:28.467Z,101215.50
2023-05-09T12:48:57.550Z,101216.50
2023-05-09T12:51:26.328Z,101213.50
2023-05-09T12:53:55.548Z,101208.50
2023-05-09T12:56:25.243Z,101207.31
2023-05-09T12:58:59.732Z,101202.34
2023-05-09T13:01:29.961Z,101205.72
2023-05-09T13:04:10.489Z,101201.34
2023-05-09T13:06:48.684Z,101194.34
2023-05-09T13:09:18.283Z,101200.34
2023-05-09T13:11:46.646Z,101189.97
2023-05-09T13:14:17.960Z,101189.59
2023-05-09T13:16:44.776Z,101185.19
2023-05-09T13:19:11.416Z,101188.59
2023-05-09T13:21:40.566Z,101185.59
2023-05-09T13:24:07.363Z,101170.06
2023-05-09T13:26:36.146Z,101175.03
2023-05-09T13:29:02.776Z,101164.06
2023-05-09T13:31:29.525Z,101165.66
2023-05-09T13:33:56.040Z,101166.25
2023-05-09T13:36:25.123Z,101159.31
2023-05-09T13:38:51.626Z,101164.31
2023-05-09T13:41:24.043Z,101157.75
2023-05-09T13:43:51.135Z,101158.97
2023-05-09T13:46:20.158Z,101152.81
2023-05-09T13:48:49.013Z,101149.66
2023-05-09T13:51:17.845Z,101154.81
2023-05-09T13:53:44.385Z,101157.59
2023-05-09T13:56:13.884Z,101152.22
2023-05-09T13:58:45.485Z,101153.00
2023-05-09T14:01:14.260Z,101151.22
2023-05-09T14:03:43.146Z,101143.25
2023-05-09T14:06:10.478Z,101141.44
2023-05-09T14:08:37.178Z,101147.22
2023-05-09T14:11:03.857Z,101139.81
2023-05-09T14:13:32.115Z,101131.47
2023-05-09T14:15:59.193Z,101138.03
2023-05-09T14:18:25.771Z,101142.25
2023-05-09T14:20:54.703Z,101132.72
2023-05-09T14:23:22.376Z,101130.69
2023-05-09T14:25:51.250Z,101124.91
2023-05-09T14:28:17.745Z,101124.06
2023-05-09T14:30:44.487Z,101120.28
2023-05-09T14:33:14.448Z,101121.25
2023-05-09T14:35:44.030Z,101120.63
2023-05-09T14:38:12.474Z,101117.25
2023-05-09T14:40:39.115Z,101112.28
2023-05-09T14:43:09.626Z,101107.91
2023-05-09T14:45:39.144Z,101102.75
2023-05-09T14:48:05.827Z,101109.91
2023-05-09T14:50:34.675Z,101097.38
2023-05-09T14:53:01.997Z,101103.78
2023-05-09T14:55:28.564Z,101091.31
2023-05-09T14:57:57.520Z,101092.94
2023-05-09T15:00:25.679Z,101100.28
2023-05-09T15:02:54.705Z,101096.31
2023-05-09T15:05:21.372Z,101088.31
2023-05-09T15:07:47.836Z,101077.00
2023-05-09T15:10:16.832Z,101085.94
2023-05-09T15:12:48.318Z,101073.22
2023-05-09T15:15:18.302Z,101078.19
2023-05-09T15:17:50.033Z,101067.63
2023-05-09T15:20:20.143Z,101072.59
2023-05-09T15:22:47.860Z,101071.78
2023-05-09T15:25:17.676Z,101063.41
2023-05-09T15:27:46.798Z,101067.22
2023-05-09T15:30:16.219Z,101061.47
2023-05-09T15:32:45.938Z,101062.25
2023-05-09T15:35:15.788Z,101060.47
2023-05-09T15:37:42.305Z,101062.84
2023-05-09T15:40:09.318Z,101062.03
2023-05-09T15:42:36.349Z,101057.66
2023-05-09T15:45:05.124Z,101055.06
2023-05-09T15:47:34.071Z,101056.66
2023-05-09T15:50:00.630Z,101058.47
2023-05-09T15:52:28.122Z,101053.31
2023-05-09T15:54:58.063Z,101052.72
2023-05-09T15:57:27.236Z,101046.72
2023-05-09T15:59:55.882Z,101054.50
2023-05-09T16:02:24.902Z,101041.94
2023-05-09T16:04:53.715Z,101044.31
2023-05-09T16:07:22.586Z,101042.13
2023-05-09T16:09:49.201Z,101037.75
2023-05-09T16:12:15.812Z,101039.38
2023-05-09T16:14:47.332Z,101028.63
2023-05-09T16:17:13.986Z,101028.63
2023-05-09T16:19:41.020Z,101025.44
2023-05-09T16:22:07.769Z,101030.81
2023-05-09T16:24:34.302Z,101033.78
2023-05-09T16:27:00.792Z,101027.84
2023-05-09T16:29:29.424Z,101024.88
2023-05-09T16:31:55.898Z,101017.31
2023-05-09T16:34:24.817Z,101023.72
2023-05-09T16:36:56.324Z,101020.34
2023-05-09T16:39:23.823Z,101016.19
2023-05-09T16:41:54.155Z,101014.19
2023-05-09T16:44:21.743Z,101012.00
2023-05-09T16:46:50.380Z,101007.03
2023-05-09T16:49:16.911Z,101008.63
2023-05-09T16:51:44.164Z,101006.84
2023-05-09T16:54:13.218Z,101000.09
2023-05-09T16:56:39.740Z,101002.28
2023-05-09T16:59:06.220Z,101001.47
2023-05-09T17:01:32.817Z,101001.69
2023-05-09T17:04:06.894Z,101002.47
2023-05-09T17:06:35.832Z,101005.28
2023-05-09T17:09:02.412Z,100994.31
2023-05-09T17:11:29.095Z,100991.16
2023-05-09T17:13:55.643Z,100988.78
2023-05-09T17:16:23.487Z,100987.56
2023-05-09T17:18:53.149Z,100987.19
2023-05-09T17:21:23.014Z,100985.59
2023-05-09T17:23:49.525Z,100994.75
2023-05-09T17:26:18.395Z,100995.31
2023-05-09T17:28:47.913Z,100993.34
2023-05-09T17:31:14.471Z,100984.19
2023-05-09T17:33:43.557Z,100986.00
2023-05-09T17:36:12.314Z,100981.03
2023-05-09T17:38:41.141Z,100985.00
2023-05-09T17:41:10.017Z,100982.00
2023-05-09T17:43:41.378Z,100973.84
2023-05-09T17:46:08.150Z,100980.00
2023-05-09T17:48:34.716Z,100977.44
2023-05-09T17:51:01.340Z,100980.44
2023-05-09T17:53:30.707Z,100980.03
2023-05-09T17:55:57.934Z,100972.88
2023-05-09T17:58:24.531Z,100973.28
2023-05-09T18:00:55.171Z,100976.47
2023-05-09T18:03:21.818Z,100982.41
2023-05-09T18:05:48.762Z,100977.25
2023-05-09T18:08:15.298Z,100977.66
2023-05-09T18:10:44.247Z,100977.66
2023-05-09T18:13:10.919Z,100978.63
2023-05-09T18:15:41.257Z,100979.63
2023-05-09T18:18:08.072Z,100978.03
2023-05-09T18:20:34.691Z,100976.84
2023-05-09T18:23:03.744Z,100976.06
2023-05-09T18:25:30.997Z,100978.63
2023-05-09T18:27:57.506Z,100975.69
2023-05-09T18:30:27.475Z,100975.69
2023-05-09T18:33:00.192Z,100976.06
2023-05-09T18:35:29.234Z,100976.28
2023-05-09T18:37:57.933Z,100976.47
2023-05-09T18:40:24.492Z,100985.00
2023-05-09T18:42:51.001Z,100976.88
2023-05-09T18:45:22.421Z,100983.22
2023-05-09T18:47:51.413Z,100973.91
2023-05-09T18:50:19.102Z,100974.47
2023-05-09T18:52:50.540Z,100969.31
2023-05-09T18:55:19.704Z,100976.47
2023-05-09T18:57:46.786Z,100975.47
2023-05-09T19:00:16.296Z,100978.84
2023-05-09T19:02:47.814Z,100976.47
2023-05-09T19:05:14.495Z,100972.91
2023-05-09T19:07:41.066Z,100976.88
2023-05-09T19:10:10.552Z,100979.66
2023-05-09T19:12:39.527Z,100976.28
2023-05-09T19:15:06.710Z,100977.84
2023-05-09T19:17:33.273Z,100975.50
2023-05-09T19:19:59.799Z,100977.47
2023-05-09T19:22:28.959Z,100978.28
2023-05-09T19:25:01.015Z,100974.91
2023-05-09T19:27:27.912Z,100984.44
2023-05-09T19:29:56.980Z,100979.06
2023-05-09T19:32:23.515Z,100978.28
2023-05-09T19:34:50.236Z,100981.44
2023-05-09T19:37:19.213Z,100987.59
2023-05-09T19:39:48.077Z,100983.22
2023-05-09T19:42:19.553Z,100984.44
2023-05-09T19:44:46.680Z,100984.44
2023-05-09T19:47:15.720Z,100987.03
2023-05-09T19:49:44.575Z,100992.38
2023-05-09T19:52:11.109Z,100986.22
2023-05-09T19:54:37.883Z,100999.31
2023-05-09T19:57:06.980Z,100993.38
2023-05-09T19:59:38.386Z,100998.53
2023-05-09T20:02:07.162Z,100992.97
2023-05-09T20:04:35.597Z,100993.94
2023-05-09T20:07:03.105Z,101002.91
2023-05-09T20:09:32.241Z,101003.66
2023-05-09T20:12:01.903Z,100997.31
2023-05-09T20:14:28.472Z,101007.03
2023-05-09T20:16:54.978Z,100995.91
2023-05-09T20:19:23.730Z,100998.28
2023-05-09T20:21:55.014Z,101002.25
2023-05-09T20:24:23.932Z,101005.03
2023-05-09T20:26:50.912Z,101007.22
2023-05-09T20:29:17.357Z,101005.81
2023-05-09T20:31:48.688Z,101008.19
2023-05-09T20:34:18.011Z,101008.59
2023-05-09T20:36:48.402Z,101008.34
2023-05-09T20:39:20.233Z,101007.72
2023-05-09T20:41:52.437Z,101009.16
2023-05-09T20:44:21.471Z,101017.69
2023-05-09T20:46:50.669Z,101013.72
2023-05-09T20:49:19.635Z,101019.03
2023-05-09T20:51:48.579Z,101013.66
2023-05-09T20:54:15.094Z,101015.03
2023-05-09T20:56:44.031Z,101020.97
2023-05-09T20:59:10.733Z,101023.16
2023-05-09T21:01:37.364Z,101021.75
2023-05-09T21:04:08.859Z,101025.31
2023-05-09T21:06:38.528Z,101024.72
2023-05-09T21:09:11.250Z,101025.09
2023-05-09T21:11:40.070Z,101020.94
2023-05-09T21:14:07.441Z,101021.50
2023-05-09T21:16:36.180Z,101025.88
2023-05-09T21:19:04.892Z,101021.91
2023-05-09T21:21:34.244Z,101021.13
2023-05-09T21:24:08.891Z,101021.91
2023-05-09T21:26:36.348Z,101014.97
2023-05-09T21:29:02.951Z,101022.28
2023-05-09T21:31:29.453Z,101017.91
2023-05-09T21:33:56.148Z,101013.94
2023-05-09T21:36:25.269Z,101008.97
2023-05-09T21:38:51.840Z,101009.78
2023-05-09T21:41:18.338Z,101006.38
2023-05-09T21:43:47.227Z,101007.56
2023-05-09T21:46:13.761Z,101000.84
2023-05-09T21:48:40.260Z,101004.00
2023-05-09T21:51:07.596Z,101002.63
2023-05-09T21:53:34.049Z,101002.78
2023-05-09T21:56:00.604Z,101002.97
2023-05-09T21:58:27.045Z,101000.41
2023-05-09T22:00:55.889Z,101004.56
2023-05-09T22:03:23.275Z,100996.84
2023-05-09T22:05:49.806Z,100996.84
2023-05-09T22:08:16.280Z,100996.66
2023-05-09T22:10:47.498Z,100993.25
2023-05-09T22:13:14.096Z,100991.69
2023-05-09T22:15:41.767Z,100996.03
2023-05-09T22:18:11.463Z,100989.31
2023-05-09T22:20:37.961Z,100990.28
2023-05-09T22:23:04.475Z,100989.31
2023-05-09T22:25:31.114Z,100988.31
2023-05-09T22:27:57.607Z,100987.50
2023-05-09T22:30:26.899Z,100978.78
2023-05-09T22:33:01.276Z,100992.47
2023-05-09T22:35:32.692Z,100986.34
2023-05-09T22:38:01.419Z,100987.75
2023-05-09T22:40:30.238Z,100984.16
2023-05-09T22:42:59.106Z,100977.63
2023-05-09T22:45:25.810Z,100980.19
2023-05-09T22:47:52.370Z,100978.63
2023-05-09T22:50:19.141Z,100979.41
2023-05-09T22:52:45.692Z,100976.84
2023-05-09T22:55:17.121Z,100992.91
2023-05-09T22:57:43.658Z,100980.19
2023-05-09T23:00:10.937Z,100987.94
2023-05-09T23:02:37.655Z,100985.16
2023-05-09T23:05:04.464Z,100980.00
2023-05-09T23:07:30.917Z,100983.38
2023-05-09T23:09:59.843Z,100989.31
2023-05-09T23:12:26.607Z,100991.13
2023-05-09T23:14:57.971Z,100998.41
2023-05-09T23:17:24.550Z,100988.72
2023-05-09T23:19:53.486Z,100979.34
2023-05-09T23:22:19.968Z,100976.38
2023-05-09T23:24:48.746Z,100977.53
2023-05-09T23:27:15.218Z,100982.53
2023-05-09T23:29:41.844Z,100981.91
2023-05-09T23:32:08.388Z,100985.69
2023-05-09T23:34:36.777Z,100981.88
2023-05-09T23:37:07.221Z,100988.03
2023-05-09T23:39:36.228Z,100980.09
2023-05-09T23:42:05.115Z,100980.09
2023-05-09T23:44:31.618Z,100977.28
2023-05-09T23:46:58.268Z,100985.22
2023-05-09T23:49:27.240Z,100982.06
2023-05-09T23:51:53.736Z,100982.66
2023-05-09T23:54:24.471Z,100982.44
2023-05-09T23:56:51.045Z,100974.31
2023-05-09T23:59:19.962Z,100974.69
